createdAt,value
2018-12-11T00:00:04.411Z,1009.20
2018-12-11T00:01:09.941Z,1009.22
2018-12-11T00:02:15.471Z,1009.25
2018-12-11T00:03:21.002Z,1009.26
2018-12-11T00:04:26.544Z,1009.34
2018-12-11T00:05:32.078Z,1009.27
2018-12-11T00:06:37.605Z,1009.30
2018-12-11T00:07:43.134Z,1009.30
2018-12-11T00:08:48.663Z,1009.29
2018-12-11T00:09:54.196Z,1009.31
2018-12-11T00:10:59.729Z,1009.34
2018-12-11T00:12:05.265Z,1009.31
2018-12-11T00:13:10.794Z,1009.30
2018-12-11T00:14:16.325Z,1009.36
2018-12-11T00:15:21.857Z,1009.32
2018-12-11T00:16:27.386Z,1009.31
2018-12-11T00:17:32.917Z,1009.35
2018-12-11T00:18:38.447Z,1009.33
2018-12-11T00:19:43.981Z,1009.39
2018-12-11T00:20:49.516Z,1009.30
2018-12-11T00:21:55.051Z,1009.27
2018-12-11T00:23:00.577Z,1009.36
2018-12-11T00:24:06.110Z,1009.33
2018-12-11T00:25:11.647Z,1009.30
2018-12-11T00:26:17.174Z,1009.40
2018-12-11T00:27:22.708Z,1009.35
2018-12-11T00:28:28.237Z,1009.42
2018-12-11T00:29:33.776Z,1009.37
2018-12-11T00:30:39.294Z,1009.45
2018-12-11T00:31:44.835Z,1009.35
2018-12-11T00:32:50.365Z,1009.40
2018-12-11T00:33:55.896Z,1009.42
2018-12-11T00:35:01.433Z,1009.43
2018-12-11T00:36:06.960Z,1009.46
2018-12-11T00:37:12.493Z,1009.48
2018-12-11T00:38:18.024Z,1009.49
2018-12-11T00:39:23.558Z,1009.50
2018-12-11T00:40:29.088Z,1009.44
2018-12-11T00:41:34.617Z,1009.52
2018-12-11T00:42:40.152Z,1009.46
2018-12-11T00:43:45.681Z,1009.50
2018-12-11T00:44:51.215Z,1009.59
2018-12-11T00:45:56.746Z,1009.57
2018-12-11T00:47:02.277Z,1009.55
2018-12-11T00:48:07.812Z,1009.55
2018-12-11T00:49:13.343Z,1009.60
2018-12-11T00:50:18.876Z,1009.58
2018-12-11T00:51:24.411Z,1009.61
2018-12-11T00:52:29.938Z,1009.65
2018-12-11T00:53:35.468Z,1009.58
2018-12-11T00:54:41.001Z,1009.60
2018-12-11T00:55:46.535Z,1009.58
2018-12-11T00:56:52.062Z,1009.55
2018-12-11T00:57:57.593Z,1009.62
2018-12-11T00:59:03.134Z,1009.65
2018-12-11T01:00:08.660Z,1009.64
2018-12-11T01:01:14.196Z,1009.64
2018-12-11T01:06:57.265Z,1009.74
2018-12-11T01:08:00.769Z,1009.79
2018-12-11T02:28:11.498Z,1010.21
2018-12-11T02:29:08.925Z,1010.16
2018-12-11T02:31:07.342Z,1010.14
2018-12-11T02:32:12.854Z,1010.20
2018-12-11T02:34:11.256Z,1010.22
2018-12-11T02:35:16.783Z,1010.21
2018-12-11T02:37:15.281Z,1010.23
2018-12-11T02:38:27.254Z,1010.26
2018-12-11T02:40:19.286Z,1010.25
2018-12-11T02:41:24.745Z,1010.24
2018-12-11T02:42:30.275Z,1010.30
2018-12-11T02:43:35.803Z,1010.30
2018-12-11T02:44:41.330Z,1010.26
2018-12-11T02:45:46.867Z,1010.30
2018-12-11T02:46:52.399Z,1010.32
2018-12-11T02:47:57.926Z,1010.25
2018-12-11T02:49:03.454Z,1010.32
2018-12-11T02:50:08.979Z,1010.34
2018-12-11T02:51:14.516Z,1010.37
2018-12-11T02:52:20.056Z,1010.36
2018-12-11T02:53:25.572Z,1010.28
2018-12-11T03:04:19.656Z,1010.32
2018-12-11T03:04:46.080Z,1010.36
2018-12-11T03:07:06.043Z,1010.39
2018-12-11T03:08:42.895Z,1010.43
2018-12-11T03:09:48.399Z,1010.43
2018-12-11T03:11:46.800Z,1010.47
2018-12-11T03:12:52.333Z,1010.42
2018-12-11T03:14:50.749Z,1010.45
2018-12-11T03:15:56.263Z,1010.49
2018-12-11T03:17:55.523Z,1010.51
2018-12-11T03:19:07.743Z,1010.47
2018-12-11T03:20:06.576Z,1010.48
2018-12-11T03:21:12.103Z,1010.51
2018-12-11T03:22:32.237Z,1010.41
2018-12-11T03:23:23.165Z,1010.44
2018-12-11T03:24:28.698Z,1010.50
2018-12-11T03:25:34.229Z,1010.51
2018-12-11T03:26:39.759Z,1010.49
2018-12-11T03:27:45.284Z,1010.53
2018-12-11T03:28:50.823Z,1010.57
2018-12-11T03:29:56.350Z,1010.57
2018-12-11T03:31:01.884Z,1010.54
2018-12-11T03:32:07.537Z,1010.55
2018-12-11T03:33:12.947Z,1010.59
2018-12-11T03:34:18.475Z,1010.60
2018-12-11T03:35:24.007Z,1010.58
2018-12-11T03:36:29.540Z,1010.62
2018-12-11T03:37:35.065Z,1010.60
2018-12-11T03:38:40.604Z,1010.50
2018-12-11T03:39:46.130Z,1010.52
2018-12-11T03:40:51.665Z,1010.58
2018-12-11T03:41:57.199Z,1010.60
2018-12-11T03:43:02.725Z,1010.59
2018-12-11T03:44:08.251Z,1010.59
2018-12-11T03:45:13.789Z,1010.64
2018-12-11T03:46:19.319Z,1010.61
2018-12-11T03:47:24.845Z,1010.65
2018-12-11T03:48:30.385Z,1010.62
2018-12-11T03:49:35.908Z,1010.66
2018-12-11T03:50:41.444Z,1010.60
2018-12-11T04:00:58.791Z,1010.63
2018-12-11T04:02:02.788Z,1010.67
2018-12-11T04:03:08.316Z,1010.63
2018-12-11T04:04:13.847Z,1010.63
2018-12-11T04:05:19.377Z,1010.67
2018-12-11T04:06:24.907Z,1010.65
2018-12-11T04:07:30.442Z,1010.61
2018-12-11T04:08:35.974Z,1010.67
2018-12-11T04:09:41.500Z,1010.70
2018-12-11T04:10:47.033Z,1010.72
2018-12-11T04:11:52.561Z,1010.74
2018-12-11T04:12:58.098Z,1010.71
2018-12-11T04:14:03.630Z,1010.74
2018-12-11T04:15:09.157Z,1010.73
2018-12-11T04:16:14.686Z,1010.75
2018-12-11T04:17:20.215Z,1010.78
2018-12-11T04:18:25.747Z,1010.79
2018-12-11T04:19:31.278Z,1010.78
2018-12-11T04:20:36.810Z,1010.82
2018-12-11T04:21:42.343Z,1010.77
2018-12-11T04:22:47.875Z,1010.85
2018-12-11T04:23:53.409Z,1010.82
2018-12-11T04:24:58.938Z,1010.82
2018-12-11T04:26:04.468Z,1010.85
2018-12-11T04:27:09.996Z,1010.88
2018-12-11T04:28:15.526Z,1010.92
2018-12-11T04:29:21.062Z,1010.90
2018-12-11T04:30:26.592Z,1010.93
2018-12-11T04:31:32.123Z,1010.91
2018-12-11T04:32:37.649Z,1010.92
2018-12-11T04:33:43.186Z,1010.97
2018-12-11T04:34:48.710Z,1011.04
2018-12-11T04:35:54.249Z,1011.00
2018-12-11T04:36:59.777Z,1010.97
2018-12-11T04:38:05.311Z,1011.05
2018-12-11T04:39:10.840Z,1010.98
2018-12-11T04:40:16.372Z,1011.06
2018-12-11T04:41:21.898Z,1010.97
2018-12-11T04:42:27.431Z,1011.04
2018-12-11T04:43:32.959Z,1011.07
2018-12-11T04:44:38.488Z,1011.08
2018-12-11T04:45:44.025Z,1011.08
2018-12-11T04:46:49.552Z,1011.12
2018-12-11T04:47:55.083Z,1011.10
2018-12-11T04:49:00.620Z,1011.09
2018-12-11T04:50:06.145Z,1011.16
2018-12-11T04:51:11.682Z,1011.16
2018-12-11T04:52:17.208Z,1011.17
2018-12-11T04:53:22.738Z,1011.20
2018-12-11T04:54:28.270Z,1011.24
2018-12-11T04:55:33.824Z,1011.26
2018-12-11T04:56:39.333Z,1011.25
2018-12-11T04:57:44.862Z,1011.33
2018-12-11T04:58:50.391Z,1011.32
2018-12-11T04:59:55.925Z,1011.29
2018-12-11T05:01:01.462Z,1011.29
2018-12-11T05:02:06.982Z,1011.26
2018-12-11T05:03:12.515Z,1011.37
2018-12-11T05:04:18.045Z,1011.31
2018-12-11T05:05:23.579Z,1011.32
2018-12-11T05:06:29.110Z,1011.31
2018-12-11T05:07:34.640Z,1011.33
2018-12-11T05:08:40.172Z,1011.38
2018-12-11T05:09:45.703Z,1011.30
2018-12-11T05:10:51.239Z,1011.32
2018-12-11T05:11:56.764Z,1011.39
2018-12-11T05:13:02.294Z,1011.37
2018-12-11T05:14:07.828Z,1011.43
2018-12-11T05:15:13.354Z,1011.42
2018-12-11T05:16:18.991Z,1011.40
2018-12-11T05:17:24.416Z,1011.40
2018-12-11T05:18:29.954Z,1011.43
2018-12-11T05:19:35.480Z,1011.39
2018-12-11T05:20:41.010Z,1011.42
2018-12-11T05:21:46.543Z,1011.48
2018-12-11T05:22:52.075Z,1011.48
2018-12-11T05:23:57.607Z,1011.50
2018-12-11T05:25:03.137Z,1011.51
2018-12-11T05:26:08.673Z,1011.50
2018-12-11T05:27:14.193Z,1011.53
2018-12-11T05:28:19.745Z,1011.46
2018-12-11T05:29:25.264Z,1011.42
2018-12-11T05:30:30.788Z,1011.44
2018-12-11T05:31:36.319Z,1011.51
2018-12-11T05:32:41.847Z,1011.52
2018-12-11T05:33:47.381Z,1011.63
2018-12-11T05:34:52.919Z,1011.54
2018-12-11T05:35:58.448Z,1011.60
2018-12-11T05:37:03.975Z,1011.56
2018-12-11T05:38:09.507Z,1011.57
2018-12-11T05:39:15.043Z,1011.57
2018-12-11T05:40:20.572Z,1011.63
2018-12-11T05:41:26.106Z,1011.62
2018-12-11T05:42:31.643Z,1011.71
2018-12-11T05:43:37.178Z,1011.68
2018-12-11T05:44:42.696Z,1011.67
2018-12-11T05:45:48.219Z,1011.73
2018-12-11T05:46:53.751Z,1011.72
2018-12-11T05:47:59.284Z,1011.77
2018-12-11T05:49:04.820Z,1011.78
2018-12-11T05:50:10.351Z,1011.74
2018-12-11T05:51:15.911Z,1011.75
2018-12-11T05:52:21.407Z,1011.70
2018-12-11T05:53:26.939Z,1011.75
2018-12-11T05:54:32.466Z,1011.72
2018-12-11T05:55:38.001Z,1011.71
2018-12-11T05:56:43.529Z,1011.73
2018-12-11T05:57:49.059Z,1011.75
2018-12-11T05:58:54.595Z,1011.75
2018-12-11T06:00:00.120Z,1011.74
2018-12-11T06:01:05.649Z,1011.70
2018-12-11T06:02:11.186Z,1011.74
2018-12-11T06:03:16.742Z,1011.78
2018-12-11T06:04:22.244Z,1011.75
2018-12-11T06:05:27.777Z,1011.82
2018-12-11T06:06:33.310Z,1011.81
2018-12-11T06:07:38.845Z,1011.82
2018-12-11T06:08:44.369Z,1011.83
2018-12-11T06:09:49.902Z,1011.80
2018-12-11T06:10:55.430Z,1011.82
2018-12-11T06:12:00.990Z,1011.84
2018-12-11T06:13:06.490Z,1011.89
2018-12-11T06:14:12.021Z,1011.90
2018-12-11T06:15:17.550Z,1011.88
2018-12-11T06:16:23.085Z,1011.85
2018-12-11T06:17:29.881Z,1011.95
2018-12-11T06:18:34.144Z,1011.89
2018-12-11T06:19:39.681Z,1011.92
2018-12-11T06:20:45.205Z,1011.95
2018-12-11T06:21:50.736Z,1011.96
2018-12-11T06:22:56.269Z,1011.94
2018-12-11T06:24:01.796Z,1012.00
2018-12-11T06:25:07.327Z,1012.03
2018-12-11T06:26:12.857Z,1012.05
2018-12-11T06:27:18.395Z,1012.03
2018-12-11T06:28:23.920Z,1012.00
2018-12-11T06:29:29.455Z,1012.04
2018-12-11T06:30:34.983Z,1012.07
2018-12-11T06:31:40.511Z,1012.06
2018-12-11T06:32:46.042Z,1012.05
2018-12-11T06:33:51.573Z,1012.05
2018-12-11T06:34:57.109Z,1012.09
2018-12-11T06:36:02.632Z,1012.11
2018-12-11T06:37:08.174Z,1012.14
2018-12-11T06:38:13.704Z,1012.12
2018-12-11T06:39:19.493Z,1012.15
2018-12-11T06:40:24.763Z,1012.14
2018-12-11T06:41:30.297Z,1012.13
2018-12-11T06:42:35.818Z,1012.15
2018-12-11T06:43:41.356Z,1012.17
2018-12-11T06:44:46.882Z,1012.24
2018-12-11T06:45:52.414Z,1012.30
2018-12-11T06:46:57.937Z,1012.29
2018-12-11T06:48:03.470Z,1012.27
2018-12-11T06:49:09.005Z,1012.26
2018-12-11T06:50:14.528Z,1012.24
2018-12-11T06:51:20.062Z,1012.34
2018-12-11T06:52:25.590Z,1012.35
2018-12-11T06:53:31.123Z,1012.38
2018-12-11T06:54:36.653Z,1012.40
2018-12-11T06:55:42.186Z,1012.44
2018-12-11T06:56:47.719Z,1012.44
2018-12-11T06:57:53.249Z,1012.47
2018-12-11T06:58:58.777Z,1012.48
2018-12-11T07:00:04.311Z,1012.48
2018-12-11T07:01:09.839Z,1012.49
2018-12-11T07:02:15.374Z,1012.49
2018-12-11T07:03:20.896Z,1012.49
2018-12-11T07:04:26.431Z,1012.51
2018-12-11T07:05:31.957Z,1012.53
2018-12-11T07:06:37.492Z,1012.52
2018-12-11T07:07:43.023Z,1012.54
2018-12-11T07:08:48.557Z,1012.57
2018-12-11T07:09:54.080Z,1012.54
2018-12-11T07:10:59.616Z,1012.52
2018-12-11T07:12:05.149Z,1012.60
2018-12-11T07:13:10.681Z,1012.58
2018-12-11T07:14:16.212Z,1012.59
2018-12-11T07:15:21.736Z,1012.62
2018-12-11T07:16:27.269Z,1012.63
2018-12-11T07:17:32.796Z,1012.67
2018-12-11T07:18:38.335Z,1012.69
2018-12-11T07:19:43.862Z,1012.76
2018-12-11T07:20:49.387Z,1012.76
2018-12-11T07:21:54.921Z,1012.73
2018-12-11T07:23:00.458Z,1012.72
2018-12-11T07:24:05.982Z,1012.72
2018-12-11T07:25:11.520Z,1012.75
2018-12-11T07:26:17.048Z,1012.75
2018-12-11T07:27:22.581Z,1012.70
2018-12-11T07:28:28.106Z,1012.75
2018-12-11T07:29:33.638Z,1012.83
2018-12-11T07:30:39.171Z,1012.79
2018-12-11T07:31:44.697Z,1012.81
2018-12-11T07:32:50.233Z,1012.82
2018-12-11T07:33:55.764Z,1012.81
2018-12-11T07:35:01.298Z,1012.86
2018-12-11T07:36:06.828Z,1012.83
2018-12-11T07:37:12.358Z,1012.79
2018-12-11T07:38:17.882Z,1012.82
2018-12-11T07:39:23.413Z,1012.87
2018-12-11T07:40:29.258Z,1012.87
2018-12-11T07:41:34.481Z,1012.86
2018-12-11T07:42:40.011Z,1012.86
2018-12-11T07:43:45.546Z,1012.82
2018-12-11T07:44:51.077Z,1012.90
2018-12-11T07:45:56.599Z,1012.81
2018-12-11T07:47:02.128Z,1012.83
2018-12-11T07:48:07.665Z,1012.85
2018-12-11T07:49:13.191Z,1012.87
2018-12-11T07:50:18.725Z,1012.95
2018-12-11T07:51:24.248Z,1012.93
2018-12-11T07:52:29.792Z,1012.96
2018-12-11T07:53:35.327Z,1012.93
2018-12-11T07:54:40.841Z,1012.97
2018-12-11T07:55:46.374Z,1012.98
2018-12-11T07:56:51.911Z,1012.96
2018-12-11T07:57:57.436Z,1012.97
2018-12-11T07:59:02.975Z,1012.95
2018-12-11T08:00:08.507Z,1012.96
2018-12-11T08:01:14.038Z,1013.00
2018-12-11T08:02:19.566Z,1012.99
2018-12-11T08:03:25.098Z,1013.01
2018-12-11T08:04:30.623Z,1013.02
2018-12-11T08:05:36.158Z,1013.06
2018-12-11T08:06:41.683Z,1013.04
2018-12-11T08:07:47.225Z,1013.09
2018-12-11T08:08:52.747Z,1013.07
2018-12-11T08:09:58.282Z,1013.04
2018-12-11T08:11:03.822Z,1013.13
2018-12-11T08:12:09.343Z,1013.11
2018-12-11T08:13:14.873Z,1013.10
2018-12-11T08:14:20.403Z,1013.07
2018-12-11T08:15:25.930Z,1013.09
2018-12-11T08:16:31.464Z,1013.07
2018-12-11T08:17:36.998Z,1013.13
2018-12-11T08:18:42.531Z,1013.12
2018-12-11T08:19:48.057Z,1013.15
2018-12-11T08:20:53.591Z,1013.15
2018-12-11T08:21:59.121Z,1013.15
2018-12-11T08:23:04.663Z,1013.17
2018-12-11T08:24:10.182Z,1013.15
2018-12-11T08:25:15.708Z,1013.20
2018-12-11T08:26:21.243Z,1013.23
2018-12-11T08:27:26.780Z,1013.27
2018-12-11T08:28:32.311Z,1013.27
2018-12-11T08:29:37.840Z,1013.28
2018-12-11T08:30:43.366Z,1013.28
2018-12-11T08:31:48.908Z,1013.33
2018-12-11T08:32:54.436Z,1013.24
2018-12-11T08:33:59.959Z,1013.32
2018-12-11T08:35:05.496Z,1013.30
2018-12-11T08:36:11.024Z,1013.32
2018-12-11T08:37:16.559Z,1013.33
2018-12-11T08:38:22.088Z,1013.37
2018-12-11T08:39:27.620Z,1013.31
2018-12-11T08:40:33.150Z,1013.40
2018-12-11T08:41:38.686Z,1013.40
2018-12-11T08:42:44.213Z,1013.41
2018-12-11T08:43:49.740Z,1013.45
2018-12-11T08:44:55.271Z,1013.46
2018-12-11T08:46:00.809Z,1013.51
2018-12-11T08:47:06.339Z,1013.47
2018-12-11T08:48:11.877Z,1013.48
2018-12-11T08:49:17.410Z,1013.53
2018-12-11T08:50:22.934Z,1013.49
2018-12-11T08:51:28.463Z,1013.53
2018-12-11T08:52:33.991Z,1013.54
2018-12-11T08:53:39.522Z,1013.57
2018-12-11T08:54:45.060Z,1013.59
2018-12-11T08:55:50.591Z,1013.56
2018-12-11T08:56:56.120Z,1013.59
2018-12-11T08:58:01.653Z,1013.65
2018-12-11T08:59:07.201Z,1013.67
2018-12-11T09:00:12.713Z,1013.70
2018-12-11T09:01:18.245Z,1013.71
2018-12-11T09:02:23.772Z,1013.72
2018-12-11T09:03:29.313Z,1013.74
2018-12-11T09:04:34.850Z,1013.73
2018-12-11T09:05:40.377Z,1013.78
2018-12-11T09:06:45.899Z,1013.78
2018-12-11T09:07:51.434Z,1013.75
2018-12-11T09:08:56.961Z,1013.76
2018-12-11T09:10:02.491Z,1013.78
2018-12-11T09:11:08.023Z,1013.75
2018-12-11T09:12:13.556Z,1013.80
2018-12-11T09:13:19.092Z,1013.81
2018-12-11T09:15:56.281Z,1013.75
2018-12-11T09:17:09.849Z,1013.78
2018-12-11T09:18:07.305Z,1013.82
2018-12-11T09:19:12.827Z,1013.86
2018-12-11T09:20:18.350Z,1013.80
2018-12-11T09:21:23.890Z,1013.83
2018-12-11T09:22:29.420Z,1013.87
2018-12-11T09:23:34.945Z,1013.82
2018-12-11T09:24:40.481Z,1013.91
2018-12-11T09:25:46.010Z,1013.87
2018-12-11T09:26:51.539Z,1013.82
2018-12-11T09:27:57.065Z,1013.84
2018-12-11T09:29:02.606Z,1013.91
2018-12-11T09:30:08.135Z,1013.85
2018-12-11T09:31:13.662Z,1013.93
2018-12-11T09:32:19.196Z,1013.92
2018-12-11T09:33:24.727Z,1013.93
2018-12-11T09:34:30.254Z,1013.89
2018-12-11T09:35:35.792Z,1013.92
2018-12-11T09:36:41.320Z,1013.98
2018-12-11T09:37:46.856Z,1014.00
2018-12-11T09:38:52.387Z,1014.05
2018-12-11T09:39:57.916Z,1014.01
2018-12-11T09:41:03.453Z,1014.02
2018-12-11T09:42:08.980Z,1014.03
2018-12-11T09:43:14.510Z,1014.06
2018-12-11T09:44:20.049Z,1014.09
2018-12-11T09:45:25.567Z,1014.05
2018-12-11T09:46:31.114Z,1014.02
2018-12-11T09:47:36.632Z,1014.03
2018-12-11T09:48:42.171Z,1014.09
2018-12-11T09:49:47.698Z,1014.10
2018-12-11T09:50:53.228Z,1014.06
2018-12-11T09:51:58.764Z,1014.03
2018-12-11T09:53:04.295Z,1014.08
2018-12-11T09:54:09.818Z,1014.05
2018-12-11T09:55:15.352Z,1014.11
2018-12-11T09:56:20.947Z,1014.08
2018-12-11T09:57:26.426Z,1014.09
2018-12-11T09:58:31.951Z,1014.06
2018-12-11T09:59:37.480Z,1014.10
2018-12-11T10:00:43.123Z,1014.06
2018-12-11T10:01:48.542Z,1014.06
2018-12-11T10:02:54.075Z,1014.07
2018-12-11T10:03:59.604Z,1014.05
2018-12-11T10:05:05.143Z,1014.14
2018-12-11T10:06:10.705Z,1014.13
2018-12-11T10:07:16.203Z,1014.13
2018-12-11T10:08:21.742Z,1014.13
2018-12-11T10:09:27.265Z,1014.11
2018-12-11T10:10:32.794Z,1014.13
2018-12-11T10:11:38.331Z,1014.20
2018-12-11T10:12:43.855Z,1014.21
2018-12-11T10:13:49.384Z,1014.18
2018-12-11T10:14:54.919Z,1014.22
2018-12-11T10:16:00.453Z,1014.26
2018-12-11T10:17:05.985Z,1014.21
2018-12-11T10:18:11.520Z,1014.26
2018-12-11T10:19:17.048Z,1014.23
2018-12-11T10:20:22.579Z,1014.28
2018-12-11T10:21:28.114Z,1014.22
2018-12-11T10:22:33.639Z,1014.25
2018-12-11T10:23:39.169Z,1014.25
2018-12-11T10:24:44.704Z,1014.25
2018-12-11T10:25:50.236Z,1014.23
2018-12-11T10:26:55.767Z,1014.20
2018-12-11T10:28:01.306Z,1014.23
2018-12-11T10:29:06.832Z,1014.27
2018-12-11T10:30:12.367Z,1014.22
2018-12-11T10:31:17.906Z,1014.23
2018-12-11T10:32:23.425Z,1014.23
2018-12-11T10:33:28.959Z,1014.22
2018-12-11T10:34:34.492Z,1014.23
2018-12-11T10:35:40.022Z,1014.20
2018-12-11T10:36:45.551Z,1014.23
2018-12-11T10:37:51.083Z,1014.30
2018-12-11T10:38:56.618Z,1014.33
2018-12-11T10:40:02.146Z,1014.30
2018-12-11T10:41:07.681Z,1014.30
2018-12-11T10:42:13.211Z,1014.31
2018-12-11T10:43:18.742Z,1014.32
2018-12-11T10:44:24.275Z,1014.28
2018-12-11T10:45:29.806Z,1014.34
2018-12-11T10:46:35.333Z,1014.28
2018-12-11T10:47:40.868Z,1014.35
2018-12-11T10:48:46.396Z,1014.33
2018-12-11T10:49:51.930Z,1014.33
2018-12-11T10:50:57.471Z,1014.29
2018-12-11T10:52:02.999Z,1014.31
2018-12-11T10:53:08.525Z,1014.34
2018-12-11T10:54:14.061Z,1014.33
2018-12-11T10:55:19.592Z,1014.33
2018-12-11T10:56:25.124Z,1014.30
2018-12-11T10:57:30.651Z,1014.30
2018-12-11T10:58:36.198Z,1014.29
2018-12-11T10:59:41.719Z,1014.33
2018-12-11T11:00:47.250Z,1014.28
2018-12-11T11:01:52.780Z,1014.36
2018-12-11T11:02:58.590Z,1014.38
2018-12-11T11:04:03.843Z,1014.36
2018-12-11T11:05:09.382Z,1014.39
2018-12-11T11:06:14.915Z,1014.40
2018-12-11T11:07:20.440Z,1014.39
2018-12-11T11:08:26.000Z,1014.42
2018-12-11T11:09:31.504Z,1014.40
2018-12-11T11:10:37.038Z,1014.38
2018-12-11T11:11:42.572Z,1014.41
2018-12-11T11:12:48.095Z,1014.42
2018-12-11T11:13:53.630Z,1014.43
2018-12-11T11:14:59.183Z,1014.44
2018-12-11T11:16:04.703Z,1014.42
2018-12-11T11:17:10.228Z,1014.45
2018-12-11T11:18:15.763Z,1014.43
2018-12-11T11:19:21.295Z,1014.42
2018-12-11T11:20:26.820Z,1014.43
2018-12-11T11:21:32.351Z,1014.46
2018-12-11T11:22:37.891Z,1014.48
2018-12-11T11:23:43.422Z,1014.47
2018-12-11T11:24:48.956Z,1014.51
2018-12-11T11:25:54.482Z,1014.45
2018-12-11T11:27:00.025Z,1014.46
2018-12-11T11:28:05.551Z,1014.50
2018-12-11T11:29:11.077Z,1014.48
2018-12-11T11:30:16.611Z,1014.49
2018-12-11T11:31:22.144Z,1014.54
2018-12-11T11:32:27.670Z,1014.53
2018-12-11T11:33:33.213Z,1014.53
2018-12-11T11:34:38.740Z,1014.57
2018-12-11T11:35:44.272Z,1014.51
2018-12-11T11:36:49.797Z,1014.58
2018-12-11T11:37:55.333Z,1014.62
2018-12-11T11:39:00.867Z,1014.61
2018-12-11T11:40:06.397Z,1014.62
2018-12-11T11:41:11.929Z,1014.64
2018-12-11T11:42:17.459Z,1014.64
2018-12-11T11:43:22.995Z,1014.68
2018-12-11T11:44:28.528Z,1014.66
2018-12-11T11:45:34.058Z,1014.71
2018-12-11T11:46:39.602Z,1014.73
2018-12-11T11:47:45.122Z,1014.69
2018-12-11T11:48:50.654Z,1014.75
2018-12-11T11:49:56.189Z,1014.71
2018-12-11T11:51:01.714Z,1014.73
2018-12-11T11:52:07.249Z,1014.75
2018-12-11T11:53:13.972Z,1014.74
2018-12-11T11:54:18.316Z,1014.75
2018-12-11T11:55:23.852Z,1014.81
2018-12-11T11:56:29.378Z,1014.81
2018-12-11T11:57:34.908Z,1014.77
2018-12-11T11:58:40.444Z,1014.87
2018-12-11T11:59:45.970Z,1014.79
2018-12-11T12:00:51.500Z,1014.80
2018-12-11T12:01:57.041Z,1014.79
2018-12-11T12:03:02.568Z,1014.82
2018-12-11T12:04:08.098Z,1014.83
2018-12-11T12:05:13.632Z,1014.83
2018-12-11T12:06:19.161Z,1014.83
2018-12-11T12:07:24.711Z,1014.81
2018-12-11T12:08:30.233Z,1014.83
2018-12-11T12:09:35.761Z,1014.82
2018-12-11T12:10:41.291Z,1014.84
2018-12-11T12:11:46.828Z,1014.87
2018-12-11T12:12:52.357Z,1014.91
2018-12-11T12:13:59.121Z,1014.91
2018-12-11T12:15:03.426Z,1014.92
2018-12-11T12:16:08.949Z,1014.91
2018-12-11T12:17:14.481Z,1014.94
2018-12-11T12:18:20.015Z,1014.93
2018-12-11T12:19:25.590Z,1014.93
2018-12-11T12:20:31.080Z,1014.97
2018-12-11T12:21:36.618Z,1014.99
2018-12-11T12:22:42.144Z,1014.94
2018-12-11T12:23:47.675Z,1015.01
2018-12-11T12:24:53.208Z,1014.97
2018-12-11T12:25:58.739Z,1014.94
2018-12-11T12:27:04.276Z,1014.96
2018-12-11T12:28:09.804Z,1015.04
2018-12-11T12:29:15.345Z,1015.04
2018-12-11T12:30:20.871Z,1015.05
2018-12-11T12:31:26.419Z,1015.06
2018-12-11T12:32:31.932Z,1015.10
2018-12-11T12:33:37.466Z,1015.09
2018-12-11T12:34:42.996Z,1015.11
2018-12-11T12:35:48.531Z,1015.13
2018-12-11T12:36:54.057Z,1015.13
2018-12-11T12:37:59.596Z,1015.14
2018-12-11T12:39:05.130Z,1015.15
2018-12-11T12:40:10.652Z,1015.13
2018-12-11T12:41:16.194Z,1015.13
2018-12-11T12:42:21.720Z,1015.19
2018-12-11T12:43:27.255Z,1015.13
2018-12-11T12:44:32.786Z,1015.14
2018-12-11T12:45:38.317Z,1015.16
2018-12-11T12:46:43.854Z,1015.19
2018-12-11T12:47:49.378Z,1015.16
2018-12-11T12:48:54.911Z,1015.16
2018-12-11T12:50:00.436Z,1015.23
2018-12-11T12:51:05.973Z,1015.22
2018-12-11T12:52:11.510Z,1015.25
2018-12-11T12:53:17.039Z,1015.23
2018-12-11T12:54:22.575Z,1015.22
2018-12-11T12:55:28.102Z,1015.23
2018-12-11T12:56:33.636Z,1015.23
2018-12-11T12:57:39.167Z,1015.25
2018-12-11T12:58:44.706Z,1015.19
2018-12-11T12:59:50.234Z,1015.19
2018-12-11T13:00:55.768Z,1015.22
2018-12-11T13:02:01.287Z,1015.24
2018-12-11T13:03:06.855Z,1015.24
2018-12-11T13:04:12.355Z,1015.24
2018-12-11T13:05:17.889Z,1015.23
2018-12-11T13:06:23.421Z,1015.28
2018-12-11T13:07:28.960Z,1015.26
2018-12-11T13:08:34.485Z,1015.25
2018-12-11T13:09:40.022Z,1015.25
2018-12-11T13:10:45.548Z,1015.33
2018-12-11T13:11:51.080Z,1015.32
2018-12-11T13:12:56.616Z,1015.26
2018-12-11T13:14:02.154Z,1015.35
2018-12-11T13:15:07.675Z,1015.37
2018-12-11T13:16:13.212Z,1015.34
2018-12-11T13:17:18.740Z,1015.41
2018-12-11T13:18:24.270Z,1015.37
2018-12-11T13:19:29.809Z,1015.38
2018-12-11T13:20:35.341Z,1015.38
2018-12-11T13:21:40.870Z,1015.37
2018-12-11T13:22:46.401Z,1015.42
2018-12-11T13:23:51.934Z,1015.42
2018-12-11T13:24:57.461Z,1015.40
2018-12-11T13:26:02.996Z,1015.43
2018-12-11T13:27:08.527Z,1015.42
2018-12-11T13:28:14.065Z,1015.46
2018-12-11T13:29:19.598Z,1015.45
2018-12-11T13:30:25.123Z,1015.46
2018-12-11T13:31:30.668Z,1015.46
2018-12-11T13:32:36.187Z,1015.50
2018-12-11T13:33:41.723Z,1015.49
2018-12-11T13:34:47.254Z,1015.50
2018-12-11T13:35:52.784Z,1015.53
2018-12-11T13:36:58.324Z,1015.57
2018-12-11T13:38:03.850Z,1015.59
2018-12-11T13:39:09.381Z,1015.59
2018-12-11T13:40:14.913Z,1015.60
2018-12-11T13:41:20.439Z,1015.56
2018-12-11T13:42:25.982Z,1015.63
2018-12-11T13:43:31.508Z,1015.59
2018-12-11T13:44:37.045Z,1015.58
2018-12-11T13:45:42.575Z,1015.58
2018-12-11T13:46:48.109Z,1015.59
2018-12-11T13:47:53.641Z,1015.61
2018-12-11T13:48:59.167Z,1015.61
2018-12-11T13:50:04.701Z,1015.60
2018-12-11T13:51:10.233Z,1015.67
2018-12-11T13:52:15.768Z,1015.68
2018-12-11T13:53:21.302Z,1015.66
2018-12-11T13:54:26.832Z,1015.68
2018-12-11T13:55:32.369Z,1015.71
2018-12-11T13:56:37.902Z,1015.72
2018-12-11T13:57:43.429Z,1015.75
2018-12-11T13:58:48.955Z,1015.72
2018-12-11T13:59:54.485Z,1015.77
2018-12-11T14:01:00.022Z,1015.79
2018-12-11T14:02:05.554Z,1015.83
2018-12-11T14:03:11.088Z,1015.82
2018-12-11T14:04:16.620Z,1015.85
2018-12-11T14:05:22.148Z,1015.85
2018-12-11T14:06:27.682Z,1015.83
2018-12-11T14:07:33.210Z,1015.84
2018-12-11T14:08:38.749Z,1015.83
2018-12-11T14:09:44.275Z,1015.84
2018-12-11T14:10:49.807Z,1015.85
2018-12-11T14:11:55.342Z,1015.80
2018-12-11T14:13:00.874Z,1015.78
2018-12-11T14:14:06.411Z,1015.76
2018-12-11T14:15:11.946Z,1015.82
2018-12-11T14:16:17.473Z,1015.84
2018-12-11T14:17:23.003Z,1015.88
2018-12-11T14:18:28.538Z,1015.88
2018-12-11T14:19:34.064Z,1015.93
2018-12-11T14:20:39.599Z,1015.89
2018-12-11T14:21:45.127Z,1015.89
2018-12-11T14:22:50.663Z,1015.90
2018-12-11T14:23:56.196Z,1015.90
2018-12-11T14:25:01.730Z,1015.92
2018-12-11T14:26:07.260Z,1015.87
2018-12-11T14:27:12.790Z,1015.89
2018-12-11T14:28:18.323Z,1015.90
2018-12-11T14:29:23.854Z,1015.91
2018-12-11T14:30:29.386Z,1015.94
2018-12-11T14:31:34.912Z,1015.91
2018-12-11T14:32:40.453Z,1015.98
2018-12-11T14:33:45.991Z,1015.98
2018-12-11T14:34:51.521Z,1015.95
2018-12-11T14:35:57.044Z,1015.97
2018-12-11T14:37:02.576Z,1016.01
2018-12-11T14:38:08.112Z,1016.02
2018-12-11T14:39:13.649Z,1016.04
2018-12-11T14:40:19.175Z,1016.05
2018-12-11T14:41:24.713Z,1016.07
2018-12-11T14:42:30.237Z,1016.09
2018-12-11T14:43:35.769Z,1016.10
2018-12-11T14:44:41.306Z,1016.08
2018-12-11T14:45:46.838Z,1016.10
2018-12-11T14:46:52.373Z,1016.10
2018-12-11T14:47:57.903Z,1016.07
2018-12-11T14:49:03.433Z,1016.10
2018-12-11T14:50:08.967Z,1016.14
2018-12-11T14:51:14.498Z,1016.14
2018-12-11T14:52:20.028Z,1016.13
2018-12-11T14:53:25.560Z,1016.14
2018-12-11T14:54:31.090Z,1016.11
2018-12-11T14:55:36.638Z,1016.08
2018-12-11T14:56:42.151Z,1016.08
2018-12-11T14:57:47.684Z,1016.10
2018-12-11T14:58:53.224Z,1016.14
2018-12-11T14:59:58.755Z,1016.19
2018-12-11T15:01:04.280Z,1016.14
2018-12-11T15:02:09.822Z,1016.13
2018-12-11T15:03:15.354Z,1016.18